Nearby METAR Reports

 

KSJC - San Jose, California, USA
Distance from station: NE 14km
Actualización: 19/10/2021 03:53
Few Clouds
Few Clouds
 Viento del NNO
Viento: NNO 19 km/h
Temperatura: 14°C
Rocío: 8°C
Humedad: 67%
Barómetro: 1016.6 hPa
Clouds: Few Clouds
Visibilidad: 16 km
Cloud details: Few Clouds 732 m
Few Clouds 914 m
Few Clouds 2438 m
2021/10/19 01:53 KSJC 190153Z 34010KT 10SM FEW024 FEW030 FEW080 14/08 A3002 RMK AO2 SLP163 T01390083
KNUQ - Moffett Nas/Mtn, California, USA
Distance from station: N 14km
Actualización: 19/10/2021 03:55
Despejado
Despejado
 Viento del calm
Viento: Calma
Temperatura: 14°C
Rocío: 8°C
Humedad: 67%
Barómetro: 1016.6 hPa
Clouds: Despejado
Visibilidad: 16 km
2021/10/19 01:55 KNUQ 190155Z AUTO 00000KT 10SM CLR 14/08 A3002 RMK AO2
 
KPAO - Palo Alto, California, USA
Distance from station: NNO 23km
Actualización: 19/10/2021 03:47
Few Clouds
Few Clouds
 Viento del NNO
Viento: NNO 13 km/h
Temperatura: 12°C
Rocío: 7°C
Humedad: 72%
Barómetro: 1016.6 hPa
Clouds: Few Clouds
Visibilidad: 16 km
Cloud details: Few Clouds 1067 m
2021/10/19 01:47 KPAO 190147Z 33007KT 10SM FEW035 12/07 A3002
KRHV - San Jose/Reid, California, USA
Distance from station: ENE 19km
Actualización: 19/10/2021 02:47
Few Clouds
Few Clouds
 Viento del NO
Viento: NO 15 km/h
Temperatura: 16°C
Rocío: 6°C
Humedad: 52%
Barómetro: 1016.3 hPa
Clouds: Few Clouds
Visibilidad: 16 km
Cloud details: Few Clouds 1524 m
2021/10/19 00:47 KRHV 190047Z 32008KT 10SM FEW050 16/06 A3001
 
KOAK - Oakland, California, USA
Distance from station: NNO 50km
Actualización: 19/10/2021 03:53
Few Clouds
Few Clouds
 Viento del ONO
Viento: ONO 15 km/h
Temperatura: 14°C
Rocío: 8°C
Humedad: 67%
Barómetro: 1016.9 hPa
Clouds: Few Clouds
Visibilidad: 16 km
Cloud details: Few Clouds 518 m
Few Clouds 1524 m
2021/10/19 01:53 KOAK 190153Z 29008KT 10SM FEW017 FEW050 14/08 A3003 RMK AO2 SLP170 T01390078
KSQL - San Carlos Airpo, California, USA
Distance from station: NO 34km
Actualización: 19/10/2021 03:50
Despejado
Despejado
 Viento del ONO
Viento: ONO 13 km/h
Temperatura: 13°C
Rocío: 8°C
Humedad: 72%
Barómetro: 1016.9 hPa
Clouds: Despejado
Visibilidad: 16 km
2021/10/19 01:50 KSQL 190150Z 29007KT 10SM CLR 13/08 A3003
 
KSFO - San Francisco, California, USA
Distance from station: NO 49km
Actualización: 19/10/2021 03:56
Few Clouds
Few Clouds
 Viento del ONO
Viento: ONO 20 km/h
Temperatura: 13°C
Rocío: 8°C
Humedad: 72%
Barómetro: 1016.6 hPa
Clouds: Few Clouds
Visibilidad: 16 km
Cloud details: Few Clouds 853 m
2021/10/19 01:56 KSFO 190156Z 29011KT 10SM FEW028 13/08 A3002 RMK AO2 SLP166 T01280078
KE16 - San Martin, California, USA
Distance from station: ESE 43km
Actualización: 19/10/2021 03:55
Few Clouds
Few Clouds
 Viento del OSO
Viento: OSO 7 km/h
Temperatura: 14°C
Rocío: 6°C
Humedad: 59%
Barómetro: 1016.9 hPa
Clouds: Few Clouds
Visibilidad: 16 km
Cloud details: Few Clouds 1463 m
2021/10/19 01:55 KE16 190155Z AUTO 25004KT 10SM FEW048 14/06 A3003 RMK AO2 PWINO PNO
 
KWVI - Watsonville, California, USA
Distance from station: SSE 44km
Actualización: 19/10/2021 03:53
Despejado
Despejado
 Viento del calm
Viento: Calma
Temperatura: 13°C
Rocío: 9°C
Humedad: 77%
Barómetro: 1016.6 hPa
Clouds: Despejado
Visibilidad: 16 km
2021/10/19 01:53 KWVI 190153Z AUTO 00000KT 10SM CLR 13/09 A3002 RMK AO2 SLP166 T01330089
KHAF - Half Moon Bay, California, USA
Distance from station: ONO 50km
Actualización: 19/10/2021 03:55
Haze, Few clouds
Haze, Few clouds
 Viento del NO
Viento: NO 7 km/h
Temperatura: 11°C
Rocío: 8°C
Humedad: 82%
Barómetro: 1017.3 hPa
Resumen: Haze
Clouds: Few Clouds
Visibilidad: 10 km
Cloud details: Few Clouds 427 m
Few Clouds 884 m
2021/10/19 01:55 KHAF 190155Z AUTO 31004KT 6SM HZ FEW014 FEW029 11/08 A3004 RMK AO2
 
KHWD - Hayward, California, USA
Distance from station: N 44km
Actualización: 19/10/2021 03:54
Despejado
Despejado
 Viento del NO
Viento: NO 7 km/h
Temperatura: 13°C
Rocío: 8°C
Humedad: 72%
Barómetro: 1016.6 hPa
Clouds: Despejado
Visibilidad: 16 km
2021/10/19 01:54 KHWD 190154Z 31004KT 10SM CLR 13/08 A3002 RMK AO2 SLP176 T01280083
KLVK - Livermore, California, USA
Distance from station: NNE 51km
Actualización: 19/10/2021 03:53
Few Clouds
Few Clouds
 Viento del O
Viento: O 13 km/h
Temperatura: 13°C
Rocío: 8°C
Humedad: 72%
Barómetro: 1016.3 hPa
Clouds: Few Clouds
Visibilidad: 16 km
Cloud details: Few Clouds 1524 m
2021/10/19 01:53 KLVK 190153Z 27007KT 10SM FEW050 13/08 A3001 RMK AO2 SLP160 T01330078